sensor_id;sensor_type;location;lat;lon;timestamp;P1;durP1;ratioP1;P2;durP2;ratioP2
19347;SDS011;9810;52.480;9.806;2024-02-21T00:02:25;26.33;;;11.57;;
19347;SDS011;9810;52.480;9.806;2024-02-21T00:04:53;26.20;;;11.37;;
19347;SDS011;9810;52.480;9.806;2024-02-21T00:07:20;28.97;;;11.37;;
19347;SDS011;9810;52.480;9.806;2024-02-21T00:09:47;24.70;;;10.87;;
19347;SDS011;9810;52.480;9.806;2024-02-21T00:12:14;28.87;;;11.27;;
19347;SDS011;9810;52.480;9.806;2024-02-21T00:14:41;22.53;;;11.97;;
19347;SDS011;9810;52.480;9.806;2024-02-21T00:17:08;23.33;;;11.90;;
19347;SDS011;9810;52.480;9.806;2024-02-21T00:19:35;29.30;;;11.90;;
19347;SDS011;9810;52.480;9.806;2024-02-21T00:22:04;28.90;;;12.07;;
19347;SDS011;9810;52.480;9.806;2024-02-21T00:24:31;27.00;;;11.43;;
19347;SDS011;9810;52.480;9.806;2024-02-21T00:26:58;23.77;;;11.73;;
19347;SDS011;9810;52.480;9.806;2024-02-21T00:29:25;26.93;;;13.87;;
19347;SDS011;9810;52.480;9.806;2024-02-21T00:31:52;32.53;;;12.00;;
19347;SDS011;9810;52.480;9.806;2024-02-21T00:34:19;26.80;;;12.97;;
19347;SDS011;9810;52.480;9.806;2024-02-21T00:36:46;26.57;;;11.90;;
19347;SDS011;9810;52.480;9.806;2024-02-21T00:39:15;28.63;;;12.30;;
19347;SDS011;9810;52.480;9.806;2024-02-21T00:41:42;25.33;;;11.47;;
19347;SDS011;9810;52.480;9.806;2024-02-21T00:44:09;22.50;;;12.33;;
19347;SDS011;9810;52.480;9.806;2024-02-21T00:46:36;26.80;;;12.80;;
19347;SDS011;9810;52.480;9.806;2024-02-21T00:49:03;19.53;;;11.13;;
19347;SDS011;9810;52.480;9.806;2024-02-21T00:51:30;28.97;;;14.63;;
19347;SDS011;9810;52.480;9.806;2024-02-21T00:53:57;25.07;;;13.40;;
19347;SDS011;9810;52.480;9.806;2024-02-21T00:56:26;28.13;;;14.23;;
19347;SDS011;9810;52.480;9.806;2024-02-21T00:58:53;28.00;;;13.80;;
19347;SDS011;9810;52.480;9.806;2024-02-21T01:01:23;30.67;;;14.50;;
19347;SDS011;9810;52.480;9.806;2024-02-21T01:03:51;27.83;;;12.80;;
19347;SDS011;9810;52.480;9.806;2024-02-21T01:06:18;31.80;;;14.27;;
19347;SDS011;9810;52.480;9.806;2024-02-21T01:08:45;28.60;;;14.43;;
19347;SDS011;9810;52.480;9.806;2024-02-21T01:11:13;23.13;;;12.87;;
19347;SDS011;9810;52.480;9.806;2024-02-21T01:13:41;30.67;;;13.23;;
19347;SDS011;9810;52.480;9.806;2024-02-21T01:16:08;29.07;;;14.57;;
19347;SDS011;9810;52.480;9.806;2024-02-21T01:18:36;31.70;;;13.40;;
19347;SDS011;9810;52.480;9.806;2024-02-21T01:21:04;30.17;;;12.43;;
19347;SDS011;9810;52.480;9.806;2024-02-21T01:23:32;27.23;;;13.47;;
19347;SDS011;9810;52.480;9.806;2024-02-21T01:25:59;21.80;;;12.00;;
19347;SDS011;9810;52.480;9.806;2024-02-21T01:28:26;29.40;;;14.53;;
19347;SDS011;9810;52.480;9.806;2024-02-21T01:30:54;21.73;;;12.47;;
19347;SDS011;9810;52.480;9.806;2024-02-21T01:33:21;25.40;;;11.93;;
19347;SDS011;9810;52.480;9.806;2024-02-21T01:35:48;32.50;;;12.63;;
19347;SDS011;9810;52.480;9.806;2024-02-21T01:38:15;25.73;;;13.03;;
19347;SDS011;9810;52.480;9.806;2024-02-21T01:40:42;23.27;;;12.83;;
19347;SDS011;9810;52.480;9.806;2024-02-21T01:43:15;32.40;;;13.63;;
19347;SDS011;9810;52.480;9.806;2024-02-21T01:45:45;29.80;;;13.67;;
19347;SDS011;9810;52.480;9.806;2024-02-21T01:48:18;30.00;;;13.13;;
19347;SDS011;9810;52.480;9.806;2024-02-21T01:50:45;24.63;;;11.80;;
19347;SDS011;9810;52.480;9.806;2024-02-21T01:53:13;30.37;;;12.90;;
19347;SDS011;9810;52.480;9.806;2024-02-21T01:55:43;35.10;;;14.17;;
19347;SDS011;9810;52.480;9.806;2024-02-21T01:58:11;27.00;;;12.83;;
19347;SDS011;9810;52.480;9.806;2024-02-21T02:00:38;25.50;;;12.30;;
19347;SDS011;9810;52.480;9.806;2024-02-21T02:03:09;27.67;;;13.57;;
19347;SDS011;9810;52.480;9.806;2024-02-21T02:05:43;25.37;;;12.73;;
19347;SDS011;9810;52.480;9.806;2024-02-21T02:08:11;29.20;;;13.93;;
19347;SDS011;9810;52.480;9.806;2024-02-21T02:10:38;22.47;;;12.70;;
19347;SDS011;9810;52.480;9.806;2024-02-21T02:13:07;27.93;;;13.80;;
19347;SDS011;9810;52.480;9.806;2024-02-21T02:15:37;27.83;;;13.37;;
19347;SDS011;9810;52.480;9.806;2024-02-21T02:18:05;30.37;;;13.10;;
19347;SDS011;9810;52.480;9.806;2024-02-21T02:20:32;29.70;;;12.77;;
19347;SDS011;9810;52.480;9.806;2024-02-21T02:23:02;22.53;;;13.23;;
19347;SDS011;9810;52.480;9.806;2024-02-21T02:25:36;21.23;;;12.57;;
19347;SDS011;9810;52.480;9.806;2024-02-21T02:28:03;26.03;;;13.47;;
19347;SDS011;9810;52.480;9.806;2024-02-21T02:30:32;25.93;;;12.87;;
19347;SDS011;9810;52.480;9.806;2024-02-21T02:32:59;21.10;;;11.87;;
19347;SDS011;9810;52.480;9.806;2024-02-21T02:35:26;24.50;;;12.83;;
19347;SDS011;9810;52.480;9.806;2024-02-21T02:37:53;24.03;;;13.53;;
19347;SDS011;9810;52.480;9.806;2024-02-21T02:40:20;29.85;;;15.00;;
19347;SDS011;9810;52.480;9.806;2024-02-21T02:42:49;28.73;;;13.33;;
19347;SDS011;9810;52.480;9.806;2024-02-21T02:45:16;26.70;;;13.37;;
19347;SDS011;9810;52.480;9.806;2024-02-21T02:47:44;28.13;;;13.80;;
19347;SDS011;9810;52.480;9.806;2024-02-21T02:50:11;21.83;;;11.10;;
19347;SDS011;9810;52.480;9.806;2024-02-21T02:52:39;22.07;;;10.97;;
19347;SDS011;9810;52.480;9.806;2024-02-21T02:55:06;29.87;;;14.97;;
19347;SDS011;9810;52.480;9.806;2024-02-21T02:57:33;24.10;;;12.20;;
19347;SDS011;9810;52.480;9.806;2024-02-21T03:00:02;25.27;;;12.97;;
19347;SDS011;9810;52.480;9.806;2024-02-21T03:02:32;22.53;;;11.67;;
19347;SDS011;9810;52.480;9.806;2024-02-21T03:04:59;24.97;;;12.57;;
19347;SDS011;9810;52.480;9.806;2024-02-21T03:07:25;27.27;;;12.17;;
19347;SDS011;9810;52.480;9.806;2024-02-21T03:09:52;25.40;;;13.40;;
19347;SDS011;9810;52.480;9.806;2024-02-21T03:12:19;26.13;;;11.67;;
19347;SDS011;9810;52.480;9.806;2024-02-21T03:14:52;21.80;;;11.20;;
19347;SDS011;9810;52.480;9.806;2024-02-21T03:17:21;26.33;;;11.27;;
19347;SDS011;9810;52.480;9.806;2024-02-21T03:19:48;22.10;;;11.30;;
19347;SDS011;9810;52.480;9.806;2024-02-21T03:22:15;22.63;;;13.20;;
19347;SDS011;9810;52.480;9.806;2024-02-21T03:24:42;23.67;;;11.20;;
19347;SDS011;9810;52.480;9.806;2024-02-21T03:27:09;19.53;;;11.63;;
19347;SDS011;9810;52.480;9.806;2024-02-21T03:29:36;27.60;;;11.53;;
19347;SDS011;9810;52.480;9.806;2024-02-21T03:32:03;23.77;;;11.57;;
19347;SDS011;9810;52.480;9.806;2024-02-21T03:34:31;24.97;;;12.50;;
19347;SDS011;9810;52.480;9.806;2024-02-21T03:36:58;19.57;;;11.17;;
19347;SDS011;9810;52.480;9.806;2024-02-21T03:39:25;25.90;;;12.30;;
19347;SDS011;9810;52.480;9.806;2024-02-21T03:41:52;31.67;;;12.00;;
19347;SDS011;9810;52.480;9.806;2024-02-21T03:44:19;21.20;;;12.50;;
19347;SDS011;9810;52.480;9.806;2024-02-21T03:46:46;25.30;;;12.77;;
19347;SDS011;9810;52.480;9.806;2024-02-21T03:49:13;22.87;;;12.63;;
19347;SDS011;9810;52.480;9.806;2024-02-21T03:51:42;22.43;;;12.23;;
19347;SDS011;9810;52.480;9.806;2024-02-21T03:54:09;24.30;;;12.77;;
19347;SDS011;9810;52.480;9.806;2024-02-21T03:56:37;21.83;;;10.83;;
19347;SDS011;9810;52.480;9.806;2024-02-21T03:59:05;22.00;;;12.27;;
19347;SDS011;9810;52.480;9.806;2024-02-21T04:01:33;27.77;;;13.57;;
19347;SDS011;9810;52.480;9.806;2024-02-21T04:04:00;20.13;;;12.50;;
19347;SDS011;9810;52.480;9.806;2024-02-21T04:06:26;23.80;;;13.60;;
19347;SDS011;9810;52.480;9.806;2024-02-21T04:08:55;23.20;;;12.50;;
19347;SDS011;9810;52.480;9.806;2024-02-21T04:11:23;23.57;;;11.40;;
19347;SDS011;9810;52.480;9.806;2024-02-21T04:13:50;23.70;;;14.13;;
19347;SDS011;9810;52.480;9.806;2024-02-21T04:16:17;24.90;;;13.40;;
19347;SDS011;9810;52.480;9.806;2024-02-21T04:18:44;23.07;;;13.10;;
19347;SDS011;9810;52.480;9.806;2024-02-21T04:21:14;22.13;;;13.33;;
19347;SDS011;9810;52.480;9.806;2024-02-21T04:23:41;25.07;;;12.03;;
19347;SDS011;9810;52.480;9.806;2024-02-21T04:26:09;31.93;;;14.23;;
19347;SDS011;9810;52.480;9.806;2024-02-21T04:28:36;27.13;;;13.13;;
19347;SDS011;9810;52.480;9.806;2024-02-21T04:31:04;20.87;;;11.53;;
19347;SDS011;9810;52.480;9.806;2024-02-21T04:33:32;28.47;;;14.33;;
19347;SDS011;9810;52.480;9.806;2024-02-21T04:35:59;27.57;;;12.83;;
19347;SDS011;9810;52.480;9.806;2024-02-21T04:38:27;26.17;;;14.17;;
19347;SDS011;9810;52.480;9.806;2024-02-21T04:40:54;26.27;;;13.67;;
19347;SDS011;9810;52.480;9.806;2024-02-21T04:43:25;25.87;;;12.90;;
19347;SDS011;9810;52.480;9.806;2024-02-21T04:45:52;25.33;;;13.47;;
19347;SDS011;9810;52.480;9.806;2024-02-21T04:48:19;23.13;;;12.67;;
19347;SDS011;9810;52.480;9.806;2024-02-21T04:50:46;26.83;;;12.83;;
19347;SDS011;9810;52.480;9.806;2024-02-21T04:53:13;24.63;;;13.00;;
19347;SDS011;9810;52.480;9.806;2024-02-21T04:55:41;23.97;;;13.60;;
19347;SDS011;9810;52.480;9.806;2024-02-21T04:58:08;25.33;;;12.93;;
19347;SDS011;9810;52.480;9.806;2024-02-21T05:00:36;25.47;;;13.43;;
19347;SDS011;9810;52.480;9.806;2024-02-21T05:03:04;27.77;;;14.33;;
19347;SDS011;9810;52.480;9.806;2024-02-21T05:05:30;36.93;;;14.00;;
19347;SDS011;9810;52.480;9.806;2024-02-21T05:07:57;32.40;;;14.70;;
19347;SDS011;9810;52.480;9.806;2024-02-21T05:10:25;31.97;;;13.97;;
19347;SDS011;9810;52.480;9.806;2024-02-21T05:12:52;23.73;;;13.33;;
19347;SDS011;9810;52.480;9.806;2024-02-21T05:15:19;21.90;;;13.10;;
19347;SDS011;9810;52.480;9.806;2024-02-21T05:17:47;29.23;;;15.47;;
19347;SDS011;9810;52.480;9.806;2024-02-21T05:20:14;29.83;;;14.37;;
19347;SDS011;9810;52.480;9.806;2024-02-21T05:22:41;28.57;;;14.07;;
19347;SDS011;9810;52.480;9.806;2024-02-21T05:25:09;28.23;;;14.40;;
19347;SDS011;9810;52.480;9.806;2024-02-21T05:27:36;23.67;;;14.63;;
19347;SDS011;9810;52.480;9.806;2024-02-21T05:30:04;33.17;;;14.73;;
19347;SDS011;9810;52.480;9.806;2024-02-21T05:32:32;23.63;;;12.63;;
19347;SDS011;9810;52.480;9.806;2024-02-21T05:35:01;27.17;;;14.07;;
19347;SDS011;9810;52.480;9.806;2024-02-21T05:37:28;30.10;;;15.67;;
19347;SDS011;9810;52.480;9.806;2024-02-21T05:39:55;28.53;;;14.83;;
19347;SDS011;9810;52.480;9.806;2024-02-21T05:42:22;28.27;;;14.97;;
19347;SDS011;9810;52.480;9.806;2024-02-21T05:44:49;30.57;;;15.27;;
19347;SDS011;9810;52.480;9.806;2024-02-21T05:47:16;29.13;;;14.73;;
19347;SDS011;9810;52.480;9.806;2024-02-21T05:49:45;27.43;;;15.47;;
19347;SDS011;9810;52.480;9.806;2024-02-21T05:52:14;27.23;;;14.33;;
19347;SDS011;9810;52.480;9.806;2024-02-21T05:54:41;28.03;;;15.27;;
19347;SDS011;9810;52.480;9.806;2024-02-21T05:57:08;30.23;;;16.23;;
19347;SDS011;9810;52.480;9.806;2024-02-21T05:59:37;28.03;;;16.83;;
19347;SDS011;9810;52.480;9.806;2024-02-21T06:02:05;24.63;;;15.17;;
19347;SDS011;9810;52.480;9.806;2024-02-21T06:04:32;29.97;;;15.80;;
19347;SDS011;9810;52.480;9.806;2024-02-21T06:06:59;26.47;;;14.30;;
19347;SDS011;9810;52.480;9.806;2024-02-21T06:09:27;31.67;;;15.93;;
19347;SDS011;9810;52.480;9.806;2024-02-21T06:11:54;32.53;;;17.00;;
19347;SDS011;9810;52.480;9.806;2024-02-21T06:14:21;34.40;;;16.70;;
19347;SDS011;9810;52.480;9.806;2024-02-21T06:16:48;28.97;;;16.33;;
19347;SDS011;9810;52.480;9.806;2024-02-21T06:19:15;27.57;;;15.73;;
19347;SDS011;9810;52.480;9.806;2024-02-21T06:21:42;43.20;;;17.37;;
19347;SDS011;9810;52.480;9.806;2024-02-21T06:24:09;34.27;;;16.67;;
19347;SDS011;9810;52.480;9.806;2024-02-21T06:26:39;27.53;;;14.67;;
19347;SDS011;9810;52.480;9.806;2024-02-21T06:29:06;26.73;;;15.40;;
19347;SDS011;9810;52.480;9.806;2024-02-21T06:31:34;28.93;;;15.57;;
19347;SDS011;9810;52.480;9.806;2024-02-21T06:34:01;29.50;;;15.00;;
19347;SDS011;9810;52.480;9.806;2024-02-21T06:36:29;24.90;;;14.70;;
19347;SDS011;9810;52.480;9.806;2024-02-21T06:38:56;40.63;;;15.30;;
19347;SDS011;9810;52.480;9.806;2024-02-21T06:41:23;22.83;;;14.27;;
19347;SDS011;9810;52.480;9.806;2024-02-21T06:43:52;29.00;;;16.10;;
19347;SDS011;9810;52.480;9.806;2024-02-21T06:46:22;28.77;;;15.83;;
19347;SDS011;9810;52.480;9.806;2024-02-21T06:48:50;23.63;;;14.63;;
19347;SDS011;9810;52.480;9.806;2024-02-21T06:51:17;29.57;;;16.07;;
19347;SDS011;9810;52.480;9.806;2024-02-21T06:53:44;31.63;;;16.07;;
19347;SDS011;9810;52.480;9.806;2024-02-21T06:56:11;28.23;;;13.90;;
19347;SDS011;9810;52.480;9.806;2024-02-21T06:58:38;25.30;;;14.53;;
19347;SDS011;9810;52.480;9.806;2024-02-21T07:01:07;30.40;;;14.37;;
19347;SDS011;9810;52.480;9.806;2024-02-21T07:03:34;29.07;;;14.73;;
19347;SDS011;9810;52.480;9.806;2024-02-21T07:06:02;30.63;;;14.17;;
19347;SDS011;9810;52.480;9.806;2024-02-21T07:08:29;22.57;;;13.50;;
19347;SDS011;9810;52.480;9.806;2024-02-21T07:10:56;27.47;;;14.47;;
19347;SDS011;9810;52.480;9.806;2024-02-21T07:13:23;27.70;;;13.90;;
19347;SDS011;9810;52.480;9.806;2024-02-21T07:15:49;25.77;;;13.57;;
19347;SDS011;9810;52.480;9.806;2024-02-21T07:18:18;22.53;;;13.73;;
19347;SDS011;9810;52.480;9.806;2024-02-21T07:20:46;26.33;;;14.87;;
19347;SDS011;9810;52.480;9.806;2024-02-21T07:23:13;22.30;;;12.93;;
19347;SDS011;9810;52.480;9.806;2024-02-21T07:25:40;22.53;;;12.63;;
19347;SDS011;9810;52.480;9.806;2024-02-21T07:28:07;26.70;;;14.37;;
19347;SDS011;9810;52.480;9.806;2024-02-21T07:30:34;26.80;;;14.47;;
19347;SDS011;9810;52.480;9.806;2024-02-21T07:33:01;27.10;;;13.90;;
19347;SDS011;9810;52.480;9.806;2024-02-21T07:35:30;25.87;;;15.43;;
19347;SDS011;9810;52.480;9.806;2024-02-21T07:37:57;21.27;;;14.03;;
19347;SDS011;9810;52.480;9.806;2024-02-21T07:40:24;25.80;;;14.07;;
19347;SDS011;9810;52.480;9.806;2024-02-21T07:42:51;24.37;;;14.77;;
19347;SDS011;9810;52.480;9.806;2024-02-21T07:45:18;25.03;;;14.27;;
19347;SDS011;9810;52.480;9.806;2024-02-21T07:47:48;23.50;;;14.77;;
19347;SDS011;9810;52.480;9.806;2024-02-21T07:50:16;24.70;;;13.87;;
19347;SDS011;9810;52.480;9.806;2024-02-21T07:52:44;22.20;;;13.43;;
19347;SDS011;9810;52.480;9.806;2024-02-21T07:55:11;24.07;;;13.17;;
19347;SDS011;9810;52.480;9.806;2024-02-21T07:57:38;20.30;;;12.93;;
19347;SDS011;9810;52.480;9.806;2024-02-21T08:00:06;23.50;;;13.87;;
19347;SDS011;9810;52.480;9.806;2024-02-21T08:02:34;31.07;;;14.37;;
19347;SDS011;9810;52.480;9.806;2024-02-21T08:05:03;25.47;;;13.83;;
19347;SDS011;9810;52.480;9.806;2024-02-21T08:07:30;23.03;;;13.93;;
19347;SDS011;9810;52.480;9.806;2024-02-21T08:09:58;25.03;;;13.53;;
19347;SDS011;9810;52.480;9.806;2024-02-21T08:12:25;20.40;;;13.17;;
19347;SDS011;9810;52.480;9.806;2024-02-21T08:14:52;20.13;;;11.93;;
19347;SDS011;9810;52.480;9.806;2024-02-21T08:17:19;22.87;;;11.90;;
19347;SDS011;9810;52.480;9.806;2024-02-21T08:19:46;23.20;;;13.03;;
19347;SDS011;9810;52.480;9.806;2024-02-21T08:22:14;25.00;;;12.23;;
19347;SDS011;9810;52.480;9.806;2024-02-21T08:24:41;23.57;;;12.20;;
19347;SDS011;9810;52.480;9.806;2024-02-21T08:27:10;19.07;;;11.27;;
19347;SDS011;9810;52.480;9.806;2024-02-21T08:29:36;22.33;;;13.07;;
19347;SDS011;9810;52.480;9.806;2024-02-21T08:32:03;21.50;;;12.30;;
19347;SDS011;9810;52.480;9.806;2024-02-21T08:34:30;21.17;;;11.80;;
19347;SDS011;9810;52.480;9.806;2024-02-21T08:36:59;23.27;;;11.30;;
19347;SDS011;9810;52.480;9.806;2024-02-21T08:39:26;20.07;;;11.97;;
19347;SDS011;9810;52.480;9.806;2024-02-21T08:41:55;22.33;;;12.90;;
19347;SDS011;9810;52.480;9.806;2024-02-21T08:44:24;22.70;;;13.33;;
19347;SDS011;9810;52.480;9.806;2024-02-21T08:46:52;23.47;;;12.93;;
19347;SDS011;9810;52.480;9.806;2024-02-21T08:49:18;26.10;;;13.00;;
19347;SDS011;9810;52.480;9.806;2024-02-21T08:51:45;20.97;;;11.13;;
19347;SDS011;9810;52.480;9.806;2024-02-21T08:54:12;19.87;;;10.40;;
19347;SDS011;9810;52.480;9.806;2024-02-21T08:56:39;22.97;;;10.77;;
19347;SDS011;9810;52.480;9.806;2024-02-21T08:59:06;18.97;;;10.50;;
19347;SDS011;9810;52.480;9.806;2024-02-21T09:01:35;22.00;;;11.23;;
19347;SDS011;9810;52.480;9.806;2024-02-21T09:04:02;23.33;;;12.23;;
19347;SDS011;9810;52.480;9.806;2024-02-21T09:06:30;24.83;;;11.53;;
19347;SDS011;9810;52.480;9.806;2024-02-21T09:08:58;22.60;;;10.27;;
19347;SDS011;9810;52.480;9.806;2024-02-21T09:11:25;21.60;;;10.83;;
19347;SDS011;9810;52.480;9.806;2024-02-21T09:13:53;21.27;;;9.93;;
19347;SDS011;9810;52.480;9.806;2024-02-21T09:16:20;15.87;;;8.60;;
19347;SDS011;9810;52.480;9.806;2024-02-21T09:18:48;17.57;;;9.50;;
19347;SDS011;9810;52.480;9.806;2024-02-21T09:21:15;15.20;;;8.10;;
19347;SDS011;9810;52.480;9.806;2024-02-21T09:23:42;16.80;;;7.63;;
19347;SDS011;9810;52.480;9.806;2024-02-21T09:26:09;18.70;;;8.93;;
19347;SDS011;9810;52.480;9.806;2024-02-21T09:28:38;16.23;;;7.87;;
19347;SDS011;9810;52.480;9.806;2024-02-21T09:31:06;12.37;;;7.60;;
19347;SDS011;9810;52.480;9.806;2024-02-21T09:33:33;15.10;;;7.30;;
19347;SDS011;9810;52.480;9.806;2024-02-21T09:36:01;12.33;;;7.23;;
19347;SDS011;9810;52.480;9.806;2024-02-21T09:38:30;11.93;;;7.10;;
19347;SDS011;9810;52.480;9.806;2024-02-21T09:40:58;15.23;;;6.50;;
19347;SDS011;9810;52.480;9.806;2024-02-21T09:43:26;16.17;;;6.93;;
19347;SDS011;9810;52.480;9.806;2024-02-21T09:45:54;16.93;;;7.07;;
19347;SDS011;9810;52.480;9.806;2024-02-21T09:48:25;12.70;;;5.60;;
19347;SDS011;9810;52.480;9.806;2024-02-21T09:51:06;14.73;;;6.10;;
19347;SDS011;9810;52.480;9.806;2024-02-21T09:53:35;11.60;;;6.20;;
19347;SDS011;9810;52.480;9.806;2024-02-21T09:56:05;11.20;;;5.97;;
19347;SDS011;9810;52.480;9.806;2024-02-21T09:58:34;12.17;;;6.13;;
19347;SDS011;9810;52.480;9.806;2024-02-21T10:01:01;9.70;;;5.17;;
19347;SDS011;9810;52.480;9.806;2024-02-21T10:03:31;9.63;;;4.80;;
19347;SDS011;9810;52.480;9.806;2024-02-21T10:05:59;13.10;;;5.37;;
19347;SDS011;9810;52.480;9.806;2024-02-21T10:08:29;13.97;;;5.23;;
19347;SDS011;9810;52.480;9.806;2024-02-21T10:10:56;11.17;;;5.40;;
19347;SDS011;9810;52.480;9.806;2024-02-21T10:13:25;10.87;;;4.33;;
19347;SDS011;9810;52.480;9.806;2024-02-21T10:16:02;8.87;;;5.00;;
19347;SDS011;9810;52.480;9.806;2024-02-21T10:18:31;8.93;;;3.97;;
19347;SDS011;9810;52.480;9.806;2024-02-21T10:21:01;7.47;;;4.13;;
19347;SDS011;9810;52.480;9.806;2024-02-21T10:23:41;10.33;;;4.00;;
19347;SDS011;9810;52.480;9.806;2024-02-21T10:26:11;9.63;;;4.17;;
19347;SDS011;9810;52.480;9.806;2024-02-21T10:28:39;9.40;;;4.50;;
19347;SDS011;9810;52.480;9.806;2024-02-21T10:31:08;9.70;;;4.43;;
19347;SDS011;9810;52.480;9.806;2024-02-21T10:33:36;13.07;;;3.80;;
19347;SDS011;9810;52.480;9.806;2024-02-21T10:36:07;9.20;;;3.83;;
19347;SDS011;9810;52.480;9.806;2024-02-21T10:38:35;8.10;;;4.00;;
19347;SDS011;9810;52.480;9.806;2024-02-21T10:41:05;11.83;;;4.23;;
19347;SDS011;9810;52.480;9.806;2024-02-21T10:43:35;5.53;;;3.67;;
19347;SDS011;9810;52.480;9.806;2024-02-21T10:46:06;12.18;;;4.80;;
19347;SDS011;9810;52.480;9.806;2024-02-21T10:48:38;11.47;;;3.87;;
19347;SDS011;9810;52.480;9.806;2024-02-21T10:51:12;10.47;;;3.50;;
19347;SDS011;9810;52.480;9.806;2024-02-21T10:53:44;8.37;;;3.27;;
19347;SDS011;9810;52.480;9.806;2024-02-21T10:56:26;9.53;;;3.73;;
19347;SDS011;9810;52.480;9.806;2024-02-21T10:58:55;7.50;;;3.90;;
19347;SDS011;9810;52.480;9.806;2024-02-21T11:01:25;11.33;;;3.87;;
19347;SDS011;9810;52.480;9.806;2024-02-21T11:03:55;7.00;;;3.47;;
19347;SDS011;9810;52.480;9.806;2024-02-21T11:06:23;9.77;;;3.37;;
19347;SDS011;9810;52.480;9.806;2024-02-21T11:09:02;10.57;;;3.30;;
19347;SDS011;9810;52.480;9.806;2024-02-21T11:11:31;7.50;;;2.30;;
19347;SDS011;9810;52.480;9.806;2024-02-21T11:14:06;5.07;;;2.70;;
19347;SDS011;9810;52.480;9.806;2024-02-21T11:16:37;7.13;;;2.93;;
19347;SDS011;9810;52.480;9.806;2024-02-21T11:19:07;7.93;;;3.30;;
19347;SDS011;9810;52.480;9.806;2024-02-21T11:21:36;8.07;;;3.00;;
19347;SDS011;9810;52.480;9.806;2024-02-21T11:24:04;4.97;;;2.73;;
19347;SDS011;9810;52.480;9.806;2024-02-21T11:26:33;8.27;;;3.23;;
19347;SDS011;9810;52.480;9.806;2024-02-21T11:29:00;4.63;;;2.60;;
19347;SDS011;9810;52.480;9.806;2024-02-21T11:31:37;8.00;;;2.87;;
19347;SDS011;9810;52.480;9.806;2024-02-21T11:34:08;5.27;;;2.87;;
19347;SDS011;9810;52.480;9.806;2024-02-21T11:36:35;4.83;;;2.37;;
19347;SDS011;9810;52.480;9.806;2024-02-21T11:39:05;4.57;;;2.60;;
19347;SDS011;9810;52.480;9.806;2024-02-21T11:41:33;6.23;;;2.03;;
19347;SDS011;9810;52.480;9.806;2024-02-21T11:44:00;4.00;;;2.10;;
19347;SDS011;9810;52.480;9.806;2024-02-21T11:46:28;5.67;;;2.27;;
19347;SDS011;9810;52.480;9.806;2024-02-21T11:48:56;6.93;;;2.27;;
19347;SDS011;9810;52.480;9.806;2024-02-21T11:51:25;3.90;;;2.20;;
19347;SDS011;9810;52.480;9.806;2024-02-21T11:53:52;6.03;;;1.97;;
19347;SDS011;9810;52.480;9.806;2024-02-21T11:56:19;3.53;;;1.90;;
19347;SDS011;9810;52.480;9.806;2024-02-21T11:58:49;2.90;;;1.90;;
19347;SDS011;9810;52.480;9.806;2024-02-21T12:01:16;4.13;;;1.20;;
19347;SDS011;9810;52.480;9.806;2024-02-21T12:03:43;7.17;;;2.00;;
19347;SDS011;9810;52.480;9.806;2024-02-21T12:06:15;5.00;;;1.83;;
19347;SDS011;9810;52.480;9.806;2024-02-21T12:08:46;4.03;;;1.63;;
19347;SDS011;9810;52.480;9.806;2024-02-21T12:11:19;3.37;;;2.00;;
19347;SDS011;9810;52.480;9.806;2024-02-21T12:13:57;3.87;;;1.80;;
19347;SDS011;9810;52.480;9.806;2024-02-21T12:16:26;4.47;;;1.63;;
19347;SDS011;9810;52.480;9.806;2024-02-21T12:18:54;7.90;;;1.97;;
19347;SDS011;9810;52.480;9.806;2024-02-21T12:21:23;3.03;;;1.97;;
19347;SDS011;9810;52.480;9.806;2024-02-21T12:23:50;3.73;;;2.00;;
19347;SDS011;9810;52.480;9.806;2024-02-21T12:26:17;5.87;;;1.53;;
19347;SDS011;9810;52.480;9.806;2024-02-21T12:28:44;4.97;;;1.90;;
19347;SDS011;9810;52.480;9.806;2024-02-21T12:31:13;4.50;;;2.07;;
19347;SDS011;9810;52.480;9.806;2024-02-21T12:33:41;5.60;;;2.40;;
19347;SDS011;9810;52.480;9.806;2024-02-21T12:36:08;5.23;;;1.83;;
19347;SDS011;9810;52.480;9.806;2024-02-21T12:38:35;4.73;;;2.70;;
19347;SDS011;9810;52.480;9.806;2024-02-21T12:41:02;4.10;;;2.00;;
19347;SDS011;9810;52.480;9.806;2024-02-21T12:43:29;3.63;;;1.97;;
19347;SDS011;9810;52.480;9.806;2024-02-21T12:45:56;4.03;;;2.40;;
19347;SDS011;9810;52.480;9.806;2024-02-21T12:48:25;4.67;;;2.87;;
19347;SDS011;9810;52.480;9.806;2024-02-21T12:50:52;2.93;;;2.30;;
19347;SDS011;9810;52.480;9.806;2024-02-21T12:53:19;7.23;;;2.50;;
19347;SDS011;9810;52.480;9.806;2024-02-21T12:55:48;6.77;;;3.30;;
19347;SDS011;9810;52.480;9.806;2024-02-21T12:58:15;5.10;;;2.90;;
19347;SDS011;9810;52.480;9.806;2024-02-21T13:00:42;6.80;;;3.30;;
19347;SDS011;9810;52.480;9.806;2024-02-21T13:03:10;12.27;;;3.50;;
19347;SDS011;9810;52.480;9.806;2024-02-21T13:05:39;6.00;;;3.20;;
19347;SDS011;9810;52.480;9.806;2024-02-21T13:08:06;8.43;;;3.57;;
19347;SDS011;9810;52.480;9.806;2024-02-21T13:10:33;4.57;;;3.17;;
19347;SDS011;9810;52.480;9.806;2024-02-21T13:13:00;8.67;;;4.47;;
19347;SDS011;9810;52.480;9.806;2024-02-21T13:15:27;9.00;;;3.57;;
19347;SDS011;9810;52.480;9.806;2024-02-21T13:18:02;11.47;;;3.70;;
19347;SDS011;9810;52.480;9.806;2024-02-21T13:20:30;8.47;;;4.07;;
19347;SDS011;9810;52.480;9.806;2024-02-21T13:22:58;7.67;;;3.90;;
19347;SDS011;9810;52.480;9.806;2024-02-21T13:25:25;8.93;;;4.13;;
19347;SDS011;9810;52.480;9.806;2024-02-21T13:27:52;8.10;;;4.00;;
19347;SDS011;9810;52.480;9.806;2024-02-21T13:30:19;8.27;;;4.80;;
19347;SDS011;9810;52.480;9.806;2024-02-21T13:32:46;10.60;;;4.27;;
19347;SDS011;9810;52.480;9.806;2024-02-21T13:35:13;7.97;;;4.73;;
19347;SDS011;9810;52.480;9.806;2024-02-21T13:37:41;11.50;;;5.10;;
19347;SDS011;9810;52.480;9.806;2024-02-21T13:40:10;7.93;;;4.53;;
19347;SDS011;9810;52.480;9.806;2024-02-21T13:42:38;8.87;;;4.63;;
19347;SDS011;9810;52.480;9.806;2024-02-21T13:45:06;8.60;;;4.37;;
19347;SDS011;9810;52.480;9.806;2024-02-21T13:47:34;9.00;;;4.30;;
19347;SDS011;9810;52.480;9.806;2024-02-21T13:50:01;8.70;;;4.60;;
19347;SDS011;9810;52.480;9.806;2024-02-21T13:52:29;8.53;;;4.83;;
19347;SDS011;9810;52.480;9.806;2024-02-21T13:54:56;6.23;;;4.33;;
19347;SDS011;9810;52.480;9.806;2024-02-21T13:57:25;6.83;;;4.27;;
19347;SDS011;9810;52.480;9.806;2024-02-21T13:59:52;9.27;;;3.63;;
19347;SDS011;9810;52.480;9.806;2024-02-21T14:02:19;8.50;;;4.23;;
19347;SDS011;9810;52.480;9.806;2024-02-21T14:04:46;11.07;;;4.00;;
19347;SDS011;9810;52.480;9.806;2024-02-21T14:07:13;8.73;;;3.67;;
19347;SDS011;9810;52.480;9.806;2024-02-21T14:09:41;6.10;;;3.50;;
19347;SDS011;9810;52.480;9.806;2024-02-21T14:12:08;9.67;;;3.67;;
19347;SDS011;9810;52.480;9.806;2024-02-21T14:14:36;7.07;;;3.47;;
19347;SDS011;9810;52.480;9.806;2024-02-21T14:17:03;8.20;;;3.80;;
19347;SDS011;9810;52.480;9.806;2024-02-21T14:19:30;5.47;;;3.37;;
19347;SDS011;9810;52.480;9.806;2024-02-21T14:21:57;9.40;;;4.17;;
19347;SDS011;9810;52.480;9.806;2024-02-21T14:24:24;8.67;;;3.83;;
19347;SDS011;9810;52.480;9.806;2024-02-21T14:26:52;5.43;;;3.57;;
19347;SDS011;9810;52.480;9.806;2024-02-21T14:29:20;7.70;;;4.27;;
19347;SDS011;9810;52.480;9.806;2024-02-21T14:31:48;5.27;;;3.00;;
19347;SDS011;9810;52.480;9.806;2024-02-21T14:34:15;5.73;;;2.57;;
19347;SDS011;9810;52.480;9.806;2024-02-21T14:36:42;4.37;;;2.47;;
19347;SDS011;9810;52.480;9.806;2024-02-21T14:39:09;10.60;;;3.23;;
19347;SDS011;9810;52.480;9.806;2024-02-21T14:41:36;5.20;;;2.73;;
19347;SDS011;9810;52.480;9.806;2024-02-21T14:44:04;6.73;;;2.83;;
19347;SDS011;9810;52.480;9.806;2024-02-21T14:46:32;4.83;;;2.10;;
19347;SDS011;9810;52.480;9.806;2024-02-21T14:49:01;7.10;;;2.93;;